Time;durP1;ratioP1;P1;durP2;ratioP2;P2;SDS_P1;SDS_P2;PMS_P1;PMS_P2;Temp;Humidity;BMP_temperature;BMP_pressure;BME280_temperature;BME280_humidity;BME280_pressure;Samples;Min_cycle;Max_cycle;Signal;HPM_P1;HPM_P2
2022/12/08 00:01:26;;;;;;;41.20;18.25;;;4.00;99.90;;;;;;5041064;28;20091;-66
2022/12/08 00:03:52;;;;;;;38.50;16.55;;;4.00;99.90;;;;;;5034387;28;20033;-66
2022/12/08 00:09:22;;;;;;;34.35;17.17;;;4.00;99.90;;;;;;5034184;28;20130;-67
2022/12/08 00:11:53;;;;;;;36.85;17.60;;;4.00;99.90;;;;;;5036237;28;20705;-66
2022/12/08 00:14:21;;;;;;;31.92;14.95;;;4.00;99.90;;;;;;5037413;28;20094;-66
2022/12/08 00:16:46;;;;;;;32.03;16.55;;;4.00;99.90;;;;;;5034736;28;20033;-66
2022/12/08 00:19:12;;;;;;;34.90;16.98;;;4.00;99.90;;;;;;5036299;28;20108;-67
2022/12/08 00:21:37;;;;;;;32.40;15.82;;;4.00;99.90;;;;;;5038797;28;20017;-66
2022/12/08 00:24:03;;;;;;;32.80;16.75;;;4.00;99.90;;;;;;5038014;28;20031;-66
2022/12/08 00:26:29;;;;;;;36.97;17.10;;;4.00;99.90;;;;;;5036941;28;20024;-66
2022/12/08 00:28:54;;;;;;;39.55;17.67;;;4.00;99.90;;;;;;5034476;28;20021;-67
2022/12/08 00:31:20;;;;;;;34.33;17.52;;;4.00;99.90;;;;;;5039109;28;20036;-67
2022/12/08 00:33:46;;;;;;;33.85;16.13;;;3.90;99.90;;;;;;5036888;28;20462;-67
2022/12/08 00:36:13;;;;;;;35.13;16.73;;;3.90;99.90;;;;;;5035701;28;20033;-66
2022/12/08 00:38:39;;;;;;;33.35;15.85;;;3.90;99.90;;;;;;5034267;28;20097;-66
2022/12/08 00:41:12;;;;;;;39.78;17.77;;;4.00;99.90;;;;;;5035148;28;20029;-67
2022/12/08 00:43:37;;;;;;;31.77;15.95;;;3.90;99.90;;;;;;5034596;28;20427;-67
2022/12/08 00:46:07;;;;;;;29.33;15.93;;;3.90;99.90;;;;;;5038208;28;20021;-66
2022/12/08 00:48:32;;;;;;;36.28;17.55;;;3.90;99.90;;;;;;5036188;28;20473;-67
2022/12/08 00:50:58;;;;;;;32.47;15.65;;;3.90;99.90;;;;;;5027070;28;20053;-66
2022/12/08 00:53:23;;;;;;;31.52;16.30;;;3.90;99.90;;;;;;5038847;28;20160;-67
2022/12/08 00:55:49;;;;;;;31.10;16.38;;;3.90;99.90;;;;;;5042492;28;20675;-65
2022/12/08 00:58:14;;;;;;;35.20;15.13;;;3.90;99.90;;;;;;5036032;28;20398;-67
2022/12/08 01:00:41;;;;;;;30.60;15.65;;;3.90;99.90;;;;;;5039910;28;20029;-67
2022/12/08 01:03:09;;;;;;;32.13;14.30;;;3.90;99.90;;;;;;5033821;28;20025;-67
2022/12/08 01:05:35;;;;;;;33.08;15.05;;;3.90;99.90;;;;;;5035979;28;20024;-67
2022/12/08 01:08:00;;;;;;;33.85;15.27;;;3.90;99.90;;;;;;5040358;28;20036;-67
2022/12/08 01:10:26;;;;;;;35.65;14.77;;;3.90;99.90;;;;;;5038412;28;20037;-67
2022/12/08 01:12:51;;;;;;;29.60;13.93;;;3.90;99.90;;;;;;5035225;28;20537;-67
2022/12/08 01:15:17;;;;;;;25.92;13.27;;;3.90;99.90;;;;;;5035451;28;20452;-68
2022/12/08 01:17:42;;;;;;;33.65;15.10;;;3.90;99.90;;;;;;5039437;28;20148;-66
2022/12/08 01:20:09;;;;;;;30.92;14.38;;;3.90;99.90;;;;;;5040309;28;20128;-67
2022/12/08 01:22:35;;;;;;;29.50;15.23;;;3.90;99.90;;;;;;5040305;28;20111;-67
2022/12/08 01:25:01;;;;;;;27.50;14.07;;;3.90;99.90;;;;;;5040157;28;20617;-65
2022/12/08 01:27:27;;;;;;;30.67;13.68;;;3.90;99.90;;;;;;5036486;28;20048;-66
2022/12/08 01:29:52;;;;;;;29.55;15.77;;;3.90;99.90;;;;;;5032939;28;20064;-66
2022/12/08 01:32:18;;;;;;;27.13;14.88;;;3.90;99.90;;;;;;5035591;28;20032;-66
2022/12/08 01:34:43;;;;;;;25.27;14.05;;;3.90;99.90;;;;;;5033767;28;20514;-66
2022/12/08 01:37:11;;;;;;;27.67;14.05;;;3.90;99.90;;;;;;5037042;28;20483;-66
2022/12/08 01:39:37;;;;;;;25.77;13.45;;;4.00;99.90;;;;;;5033323;28;20116;-67
2022/12/08 01:42:02;;;;;;;28.35;14.40;;;3.90;99.90;;;;;;5033210;28;20163;-67
2022/12/08 01:44:28;;;;;;;25.58;12.20;;;3.90;99.90;;;;;;5041376;28;20028;-67
2022/12/08 01:46:55;;;;;;;28.25;13.32;;;3.90;99.90;;;;;;5040162;28;20482;-65
2022/12/08 01:49:26;;;;;;;29.33;14.77;;;3.90;99.90;;;;;;5026195;28;20052;-66
2022/12/08 01:52:10;;;;;;;25.30;13.60;;;3.90;99.90;;;;;;5038082;28;20030;-66
2022/12/08 01:54:47;;;;;;;26.52;12.75;;;3.90;99.90;;;;;;5048887;28;20043;-66
2022/12/08 01:57:19;;;;;;;23.83;13.02;;;4.00;99.90;;;;;;5034361;28;20074;-65
2022/12/08 01:59:51;;;;;;;28.55;14.52;;;4.00;99.90;;;;;;5030803;28;20048;-66
2022/12/08 02:02:17;;;;;;;28.20;13.77;;;4.00;99.90;;;;;;5038947;28;20029;-65
2022/12/08 02:04:42;;;;;;;30.98;14.60;;;4.00;99.90;;;;;;5038899;28;20035;-66
2022/12/08 02:07:10;;;;;;;25.30;13.30;;;4.00;99.90;;;;;;5042154;28;20021;-66
2022/12/08 02:09:38;;;;;;;26.58;14.48;;;4.00;99.90;;;;;;5043143;28;20719;-66
2022/12/08 02:12:04;;;;;;;25.13;13.60;;;4.00;99.90;;;;;;5039377;28;20126;-67
2022/12/08 02:14:31;;;;;;;27.50;13.90;;;3.90;99.90;;;;;;5039530;28;20072;-67
2022/12/08 02:17:16;;;;;;;35.90;17.13;;;3.90;99.90;;;;;;5035792;28;20040;-66
2022/12/08 02:20:02;;;;;;;30.25;15.45;;;3.90;99.90;;;;;;5046927;28;20036;-67
2022/12/08 02:22:43;;;;;;;30.33;14.90;;;3.90;99.90;;;;;;5028547;28;20036;-66
2022/12/08 02:25:23;;;;;;;30.58;17.48;;;3.90;99.90;;;;;;5040478;28;20049;-66
2022/12/08 02:28:03;;;;;;;31.67;15.15;;;3.90;99.90;;;;;;5035645;28;20056;-65
2022/12/08 02:30:48;;;;;;;35.20;16.85;;;3.90;99.90;;;;;;5025234;28;20040;-67
2022/12/08 02:33:25;;;;;;;36.92;18.10;;;3.90;99.90;;;;;;5047451;28;20043;-67
2022/12/08 02:36:25;;;;;;;34.90;15.32;;;3.90;99.90;;;;;;5036846;28;20026;-66
2022/12/08 02:39:10;;;;;;;30.88;15.30;;;3.90;99.90;;;;;;5034652;28;20028;-67
2022/12/08 02:41:44;;;;;;;;;;;3.90;99.90;;;;;;5049654;28;20040;-67
2022/12/08 02:44:28;;;;;;;34.95;17.08;;;3.90;99.90;;;;;;5044352;28;19962;-66
2022/12/08 02:47:13;;;;;;;32.25;15.32;;;3.90;99.90;;;;;;5046194;28;20090;-67
2022/12/08 02:49:38;;;;;;;32.50;16.20;;;3.90;99.90;;;;;;5035823;28;20120;-66
2022/12/08 02:52:13;;;;;;;31.45;16.50;;;3.90;99.90;;;;;;5039316;28;20108;-67
2022/12/08 02:54:42;;;;;;;38.20;15.30;;;3.90;99.90;;;;;;5049624;28;20395;-67
2022/12/08 02:57:27;;;;;;;33.35;16.50;;;3.90;99.90;;;;;;5043503;28;20111;-66
2022/12/08 03:00:02;;;;;;;29.45;15.02;;;3.90;99.90;;;;;;5040866;28;20116;-67
2022/12/08 03:02:43;;;;;;;31.38;15.57;;;3.90;99.90;;;;;;5049475;28;20059;-66
2022/12/08 03:05:26;;;;;;;34.22;15.88;;;3.80;99.90;;;;;;5047205;28;20051;-67
2022/12/08 03:08:23;;;;;;;25.13;15.07;;;3.80;99.90;;;;;;5045858;28;20029;-67
2022/12/08 03:11:00;;;;;;;29.35;14.35;;;3.90;99.90;;;;;;5029987;28;20685;-67
2022/12/08 03:13:38;;;;;;;26.25;14.05;;;3.90;99.90;;;;;;5045778;28;20029;-67
2022/12/08 03:16:08;;;;;;;31.52;16.67;;;3.90;99.90;;;;;;5047771;28;20032;-67
2022/12/08 03:18:38;;;;;;;26.15;13.82;;;3.90;99.90;;;;;;5050610;28;20423;-67
2022/12/08 03:21:05;;;;;;;28.92;14.88;;;3.90;99.90;;;;;;5041922;28;20034;-67
2022/12/08 03:23:34;;;;;;;27.20;14.77;;;3.90;99.90;;;;;;5043570;28;20047;-67
2022/12/08 03:26:23;;;;;;;34.05;15.90;;;3.90;99.90;;;;;;5048388;28;20033;-68
2022/12/08 03:28:49;;;;;;;26.35;15.00;;;3.90;99.90;;;;;;5051095;28;20056;-66
2022/12/08 03:31:17;;;;;;;28.10;15.02;;;3.90;99.90;;;;;;5049248;28;20024;-68
2022/12/08 03:33:45;;;;;;;36.35;14.95;;;3.90;99.90;;;;;;5047732;28;20107;-67
2022/12/08 03:36:13;;;;;;;26.30;15.40;;;3.90;99.90;;;;;;5048446;28;20036;-66
2022/12/08 03:38:41;;;;;;;35.65;16.70;;;3.90;99.90;;;;;;5049764;28;20032;-67
2022/12/08 03:41:19;;;;;;;27.77;14.95;;;3.90;99.90;;;;;;5039741;28;20044;-65
2022/12/08 03:43:46;;;;;;;31.13;15.10;;;3.90;99.90;;;;;;5046510;28;20058;-67
2022/12/08 03:46:13;;;;;;;28.48;14.38;;;3.90;99.90;;;;;;5046576;28;20021;-65
2022/12/08 03:48:39;;;;;;;23.80;12.75;;;3.90;99.90;;;;;;5048202;28;20021;-67
2022/12/08 03:51:04;;;;;;;24.42;13.02;;;3.90;99.90;;;;;;5033170;28;20052;-66
2022/12/08 03:53:30;;;;;;;20.70;11.63;;;3.90;99.90;;;;;;5048090;28;20033;-67
2022/12/08 03:55:55;;;;;;;21.52;10.98;;;3.90;99.90;;;;;;5048292;28;20021;-67
2022/12/08 03:58:21;;;;;;;21.63;10.88;;;3.90;99.90;;;;;;5041907;28;20033;-67
2022/12/08 04:00:46;;;;;;;21.17;10.98;;;3.90;99.90;;;;;;5047260;28;20029;-67
2022/12/08 04:03:12;;;;;;;20.90;11.00;;;3.90;99.90;;;;;;5043882;28;20024;-67
2022/12/08 04:05:37;;;;;;;19.55;10.80;;;3.90;99.90;;;;;;5031556;28;20429;-68
2022/12/08 04:08:03;;;;;;;23.55;11.10;;;3.90;99.90;;;;;;5047924;28;20040;-66
2022/12/08 04:10:29;;;;;;;19.27;11.20;;;3.90;99.90;;;;;;5043572;28;20126;-67
2022/12/08 04:12:56;;;;;;;19.25;11.57;;;3.90;99.90;;;;;;5049249;28;20102;-66
2022/12/08 04:15:21;;;;;;;23.45;11.15;;;3.90;99.90;;;;;;5048489;28;20028;-65
2022/12/08 04:17:47;;;;;;;19.65;10.45;;;3.90;99.90;;;;;;5048957;28;20045;-67
2022/12/08 04:20:12;;;;;;;19.10;11.13;;;3.90;99.90;;;;;;5049062;28;20032;-67
2022/12/08 04:22:38;;;;;;;25.85;9.93;;;3.90;99.90;;;;;;5046620;28;20033;-66
2022/12/08 04:25:04;;;;;;;17.17;10.65;;;3.90;99.90;;;;;;5059287;23;20054;-60
2022/12/08 04:27:29;;;;;;;19.52;9.63;;;3.90;99.90;;;;;;5024397;28;20045;-63
2022/12/08 04:29:55;;;;;;;24.85;9.55;;;3.90;99.90;;;;;;5028228;28;20024;-63
2022/12/08 04:32:20;;;;;;;16.70;9.30;;;3.90;99.90;;;;;;5026480;28;20026;-62
2022/12/08 04:34:46;;;;;;;22.05;9.25;;;3.90;99.90;;;;;;5030678;28;20505;-63
2022/12/08 04:37:11;;;;;;;17.13;9.00;;;3.90;99.90;;;;;;5036373;28;20777;-63
2022/12/08 04:39:37;;;;;;;17.77;10.30;;;3.90;99.90;;;;;;5036025;28;20379;-63
2022/12/08 04:42:02;;;;;;;21.40;9.70;;;3.90;99.90;;;;;;5040130;28;20100;-64
2022/12/08 04:44:28;;;;;;;19.30;9.52;;;3.90;99.90;;;;;;5045384;28;20049;-63
2022/12/08 04:46:54;;;;;;;16.90;9.00;;;3.90;99.90;;;;;;5044776;28;20035;-63
2022/12/08 04:49:19;;;;;;;20.73;9.60;;;3.90;99.90;;;;;;5045715;28;20217;-62
2022/12/08 04:51:45;;;;;;;20.23;10.35;;;3.90;99.90;;;;;;5047357;28;20021;-63
2022/12/08 04:54:10;;;;;;;20.88;10.20;;;3.80;99.90;;;;;;5027096;28;20071;-63
2022/12/08 04:56:36;;;;;;;17.70;10.20;;;3.80;99.90;;;;;;5037367;28;20519;-63
2022/12/08 04:59:02;;;;;;;18.58;10.68;;;3.80;99.90;;;;;;5033843;28;20462;-63
2022/12/08 05:01:27;;;;;;;17.17;10.32;;;3.80;99.90;;;;;;5046301;28;20032;-63
2022/12/08 05:03:53;;;;;;;21.85;11.18;;;3.80;99.90;;;;;;5046000;28;20104;-62
2022/12/08 05:06:19;;;;;;;17.67;9.95;;;3.80;99.90;;;;;;5039243;28;20024;-63
2022/12/08 05:08:44;;;;;;;19.10;9.90;;;3.80;99.90;;;;;;5042055;28;20013;-64
2022/12/08 05:11:11;;;;;;;26.77;9.90;;;3.80;99.90;;;;;;5044879;28;20091;-63
2022/12/08 05:13:37;;;;;;;24.35;10.40;;;3.80;99.90;;;;;;5046093;28;20108;-63
2022/12/08 05:16:08;;;;;;;19.83;10.93;;;3.80;99.90;;;;;;5043531;28;20120;-63
2022/12/08 05:18:34;;;;;;;19.15;10.18;;;3.70;99.90;;;;;;5047601;28;20096;-64
2022/12/08 05:21:00;;;;;;;22.58;11.23;;;3.70;99.90;;;;;;5043591;28;20100;-64
2022/12/08 05:23:26;;;;;;;18.00;10.77;;;3.70;99.90;;;;;;5044579;28;20033;-64
2022/12/08 05:25:52;;;;;;;20.70;10.50;;;3.70;99.90;;;;;;5023883;28;20103;-64
2022/12/08 05:28:18;;;;;;;19.35;9.98;;;3.70;99.90;;;;;;5023686;28;20371;-64
2022/12/08 05:30:43;;;;;;;24.33;11.75;;;3.70;99.90;;;;;;5047609;28;20040;-62
2022/12/08 05:33:09;;;;;;;22.52;11.32;;;3.70;99.90;;;;;;5044295;28;20627;-62
2022/12/08 05:35:34;;;;;;;21.92;10.52;;;3.70;99.90;;;;;;5042252;28;20021;-63
2022/12/08 05:38:00;;;;;;;22.42;11.32;;;3.70;99.90;;;;;;5046851;28;20147;-62
2022/12/08 05:40:26;;;;;;;28.10;14.15;;;3.70;99.90;;;;;;5046333;28;20078;-62
2022/12/08 05:42:52;;;;;;;29.38;14.25;;;3.70;99.90;;;;;;5038795;28;20075;-63
2022/12/08 05:45:17;;;;;;;21.23;11.38;;;3.80;99.90;;;;;;5045058;28;20071;-64
2022/12/08 05:47:43;;;;;;;22.85;10.75;;;3.70;99.90;;;;;;5049724;28;20024;-64
2022/12/08 05:50:09;;;;;;;21.20;10.70;;;3.70;99.90;;;;;;5044565;28;20555;-63
2022/12/08 05:52:34;;;;;;;25.80;13.40;;;3.70;99.90;;;;;;5039137;28;20039;-64
2022/12/08 05:55:00;;;;;;;26.95;13.05;;;3.80;99.90;;;;;;5037084;28;20025;-63
2022/12/08 05:57:26;;;;;;;28.77;14.38;;;3.80;99.90;;;;;;5040531;28;20070;-64
2022/12/08 05:59:51;;;;;;;28.58;13.57;;;3.80;99.90;;;;;;5042099;28;20037;-63
2022/12/08 06:02:17;;;;;;;24.25;12.43;;;3.70;99.90;;;;;;5044735;28;20028;-64
2022/12/08 06:04:42;;;;;;;23.00;12.55;;;3.70;99.90;;;;;;5046944;28;20494;-64
2022/12/08 06:07:08;;;;;;;31.48;16.73;;;3.80;99.90;;;;;;5044619;28;20501;-63
2022/12/08 06:09:34;;;;;;;28.92;15.27;;;3.70;99.90;;;;;;5044070;28;20754;-64
2022/12/08 06:12:00;;;;;;;30.00;13.02;;;3.80;99.90;;;;;;5039907;28;20052;-63
2022/12/08 06:14:26;;;;;;;27.45;13.13;;;3.80;99.90;;;;;;5028977;28;20403;-63
2022/12/08 06:16:51;;;;;;;29.75;15.20;;;3.70;99.90;;;;;;5030361;28;20025;-63
2022/12/08 06:19:17;;;;;;;32.38;15.02;;;3.80;99.90;;;;;;5041523;28;20095;-63
2022/12/08 06:21:43;;;;;;;30.75;14.25;;;3.80;99.90;;;;;;5043158;28;20021;-64
2022/12/08 06:24:08;;;;;;;26.40;13.55;;;3.80;99.90;;;;;;5046632;28;20025;-63
2022/12/08 06:26:34;;;;;;;32.85;14.68;;;3.80;99.90;;;;;;5032562;28;20409;-63
2022/12/08 06:29:00;;;;;;;30.10;14.90;;;3.80;99.90;;;;;;5041485;28;20032;-64
2022/12/08 06:31:26;;;;;;;31.42;14.63;;;3.80;99.90;;;;;;5046172;28;20048;-63
2022/12/08 06:33:53;;;;;;;29.85;14.55;;;3.80;99.90;;;;;;5046708;28;20036;-64
2022/12/08 06:36:20;;;;;;;32.05;15.27;;;3.80;99.90;;;;;;5044451;28;20029;-64
2022/12/08 06:38:46;;;;;;;33.42;16.13;;;3.80;99.90;;;;;;5043481;28;20041;-63
2022/12/08 06:41:13;;;;;;;34.42;16.17;;;3.80;99.90;;;;;;5042883;28;20022;-63
2022/12/08 06:43:38;;;;;;;31.10;15.38;;;3.80;99.90;;;;;;5036963;28;20022;-63
2022/12/08 06:46:06;;;;;;;32.70;16.38;;;3.80;99.90;;;;;;5032113;28;20021;-64
2022/12/08 06:48:32;;;;;;;38.17;17.27;;;3.80;99.90;;;;;;5042971;28;20025;-63
2022/12/08 06:51:08;;;;;;;33.58;14.95;;;3.80;99.90;;;;;;5043796;28;20106;-64
2022/12/08 06:53:34;;;;;;;38.53;17.70;;;3.80;99.90;;;;;;5041550;28;20037;-64
2022/12/08 06:55:59;;;;;;;51.83;20.45;;;3.80;99.90;;;;;;5043276;28;20029;-63
2022/12/08 06:58:25;;;;;;;41.95;16.02;;;3.70;99.90;;;;;;5045339;28;20028;-63
2022/12/08 07:00:50;;;;;;;41.05;15.57;;;3.80;99.90;;;;;;5040598;28;20037;-63
2022/12/08 07:03:16;;;;;;;47.17;18.52;;;3.80;99.90;;;;;;5036883;28;20036;-64
2022/12/08 07:05:41;;;;;;;51.53;17.63;;;3.80;99.90;;;;;;5040504;28;20051;-64
2022/12/08 07:08:08;;;;;;;39.58;16.15;;;3.70;99.90;;;;;;5044638;28;20159;-64
2022/12/08 07:10:34;;;;;;;48.30;19.15;;;3.70;99.90;;;;;;5040586;28;20037;-64
2022/12/08 07:12:59;;;;;;;67.82;21.73;;;3.70;99.90;;;;;;5044993;28;20035;-62
2022/12/08 07:15:25;;;;;;;55.38;21.13;;;3.70;99.90;;;;;;5045505;28;20069;-64
2022/12/08 07:17:51;;;;;;;44.10;16.70;;;3.70;99.90;;;;;;5045184;28;20395;-63
2022/12/08 07:20:17;;;;;;;36.00;16.23;;;3.60;99.90;;;;;;5042163;28;20076;-63
2022/12/08 07:22:49;;;;;;;51.30;20.15;;;3.70;99.90;;;;;;5046175;28;20028;-64
2022/12/08 07:25:15;;;;;;;49.22;18.13;;;3.70;99.90;;;;;;5048082;28;20037;-64
2022/12/08 07:27:40;;;;;;;31.10;14.95;;;3.60;99.90;;;;;;5041328;28;20052;-63
2022/12/08 07:30:07;;;;;;;34.13;14.77;;;3.70;99.90;;;;;;5039581;28;20029;-64
2022/12/08 07:32:32;;;;;;;35.75;14.27;;;3.70;99.90;;;;;;5044391;28;20111;-64
2022/12/08 07:34:58;;;;;;;49.00;16.85;;;3.70;99.90;;;;;;5051038;28;20068;-64
2022/12/08 07:37:23;;;;;;;38.47;16.20;;;3.70;99.90;;;;;;5050290;28;20021;-62
2022/12/08 07:39:49;;;;;;;37.15;17.15;;;3.70;99.90;;;;;;5047204;28;20098;-64
2022/12/08 07:42:14;;;;;;;31.15;14.43;;;3.70;99.90;;;;;;5051999;28;20390;-64
2022/12/08 07:44:40;;;;;;;32.72;14.38;;;3.70;99.90;;;;;;5040450;28;20451;-63
2022/12/08 07:47:05;;;;;;;32.30;14.80;;;3.60;99.90;;;;;;5031944;28;20437;-64
2022/12/08 07:49:31;;;;;;;39.78;17.45;;;3.60;99.90;;;;;;5046581;28;20537;-64
2022/12/08 07:51:56;;;;;;;36.92;15.68;;;3.70;99.90;;;;;;5048211;28;20388;-64
2022/12/08 07:54:22;;;;;;;48.72;18.48;;;3.70;99.90;;;;;;5045414;28;20129;-64
2022/12/08 07:56:47;;;;;;;45.85;18.10;;;3.60;99.90;;;;;;5044120;28;20052;-64
2022/12/08 07:59:13;;;;;;;33.05;14.00;;;3.70;99.90;;;;;;5047747;28;20537;-63
2022/12/08 08:01:39;;;;;;;32.28;14.63;;;3.60;99.90;;;;;;5040443;28;20447;-63
2022/12/08 08:04:05;;;;;;;31.10;14.32;;;3.60;99.90;;;;;;5041619;28;20112;-63
2022/12/08 08:06:32;;;;;;;40.65;14.98;;;3.70;99.90;;;;;;5045514;28;20112;-63
2022/12/08 08:08:58;;;;;;;57.28;20.77;;;3.70;99.90;;;;;;5037807;28;20126;-64
2022/12/08 08:11:23;;;;;;;37.55;14.30;;;3.70;99.90;;;;;;5047519;28;20029;-59
2022/12/08 08:13:50;;;;;;;34.20;13.98;;;3.70;99.90;;;;;;5046100;28;20029;-63
2022/12/08 08:16:16;;;;;;;39.38;15.77;;;3.70;99.90;;;;;;5047910;28;20040;-62
2022/12/08 08:18:42;;;;;;;38.20;16.15;;;3.70;99.90;;;;;;5045272;28;20406;-63
2022/12/08 08:21:08;;;;;;;38.83;16.17;;;3.70;99.90;;;;;;5043587;28;20108;-62
2022/12/08 08:23:34;;;;;;;28.40;12.25;;;3.70;99.90;;;;;;5045772;28;20076;-62
2022/12/08 08:26:02;;;;;;;35.08;12.95;;;3.70;99.90;;;;;;5035845;28;20033;-62
2022/12/08 08:28:28;;;;;;;25.58;12.40;;;3.60;99.90;;;;;;5047688;28;20086;-64
2022/12/08 08:30:54;;;;;;;27.05;12.30;;;3.60;99.90;;;;;;5023994;28;20052;-63
2022/12/08 08:33:20;;;;;;;28.67;11.85;;;3.60;99.90;;;;;;5040731;28;20068;-64
2022/12/08 08:35:46;;;;;;;22.92;9.90;;;3.50;99.90;;;;;;5022347;28;20033;-64
2022/12/08 08:38:12;;;;;;;28.83;10.60;;;3.40;99.90;;;;;;5047446;28;20106;-64
2022/12/08 08:40:37;;;;;;;35.10;13.95;;;3.40;99.90;;;;;;5043201;28;20025;-64
2022/12/08 08:43:04;;;;;;;35.42;14.07;;;3.40;99.90;;;;;;5045404;28;20446;-63
2022/12/08 08:45:30;;;;;;;31.05;11.98;;;3.30;99.90;;;;;;5030225;28;20870;-63
2022/12/08 08:47:55;;;;;;;30.60;13.13;;;3.30;99.90;;;;;;5049343;28;20053;-64
2022/12/08 08:50:21;;;;;;;33.35;13.68;;;3.20;99.90;;;;;;5047779;28;20064;-63
2022/12/08 08:52:47;;;;;;;35.13;13.02;;;3.30;99.90;;;;;;5044194;28;20112;-64
2022/12/08 08:55:13;;;;;;;32.80;13.18;;;3.30;99.90;;;;;;5036946;28;20118;-63
2022/12/08 08:57:39;;;;;;;26.10;13.07;;;3.30;99.90;;;;;;5041307;28;20526;-64
2022/12/08 09:00:05;;;;;;;25.63;11.70;;;3.30;99.90;;;;;;5046178;28;20127;-63
2022/12/08 09:02:31;;;;;;;59.72;14.73;;;3.30;99.90;;;;;;5046666;28;20071;-64
2022/12/08 09:04:57;;;;;;;47.03;14.70;;;3.30;99.90;;;;;;5043944;28;20032;-63
2022/12/08 09:07:22;;;;;;;41.05;14.52;;;3.30;99.90;;;;;;5048447;28;20505;-59
2022/12/08 09:09:48;;;;;;;30.92;12.52;;;3.40;99.90;;;;;;5041574;28;20033;-63
2022/12/08 09:12:13;;;;;;;25.35;11.75;;;3.40;99.90;;;;;;5046023;28;20029;-63
2022/12/08 09:14:39;;;;;;;23.52;11.35;;;3.40;99.90;;;;;;5047085;28;20163;-64
2022/12/08 09:17:07;;;;;;;23.42;10.60;;;3.40;99.90;;;;;;5046522;28;20025;-63
2022/12/08 09:19:33;;;;;;;22.27;9.90;;;3.50;99.90;;;;;;5043491;28;20041;-63
2022/12/08 09:21:58;;;;;;;24.05;10.20;;;3.50;99.90;;;;;;5043770;28;20028;-64
2022/12/08 09:24:24;;;;;;;19.05;9.68;;;3.50;99.90;;;;;;5045261;28;20052;-63
2022/12/08 09:26:50;;;;;;;20.73;9.70;;;3.50;99.90;;;;;;5034733;28;20041;-64
2022/12/08 09:29:16;;;;;;;22.20;10.77;;;3.60;99.90;;;;;;5045662;28;20029;-63
2022/12/08 09:31:42;;;;;;;21.77;9.88;;;3.60;99.90;;;;;;5040184;28;20031;-64
2022/12/08 09:34:12;;;;;;;24.05;9.50;;;3.60;99.90;;;;;;5045925;28;20029;-64
2022/12/08 09:36:38;;;;;;;21.77;9.27;;;3.60;99.90;;;;;;5045250;28;20041;-63
2022/12/08 09:39:04;;;;;;;19.50;9.95;;;3.70;99.90;;;;;;5043892;28;20025;-64
2022/12/08 09:42:03;;;;;;;19.17;10.27;;;3.70;99.90;;;;;;5044498;28;20033;-63
2022/12/08 09:45:03;;;;;;;91.07;27.45;;;3.70;99.90;;;;;;5025537;28;20058;-63
2022/12/08 09:47:41;;;;;;;38.30;16.75;;;3.80;99.90;;;;;;5045449;28;20017;-63
2022/12/08 09:50:14;;;;;;;42.65;18.58;;;3.90;99.90;;;;;;5046381;28;20025;-63
2022/12/08 09:53:11;;;;;;;34.80;17.52;;;3.80;99.90;;;;;;5038610;28;20052;-64
2022/12/08 09:55:56;;;;;;;24.13;11.32;;;3.80;99.90;;;;;;5020429;28;20041;-64
2022/12/08 09:58:37;;;;;;;24.98;12.73;;;3.80;99.90;;;;;;5043560;28;20025;-63
2022/12/08 10:01:02;;;;;;;27.40;11.50;;;3.90;99.90;;;;;;5048325;28;20675;-64
2022/12/08 10:03:30;;;;;;;18.63;10.10;;;4.00;99.90;;;;;;5037646;28;20096;-64
2022/12/08 10:06:11;;;;;;;16.10;9.13;;;4.00;99.90;;;;;;5040527;28;20025;-64
2022/12/08 10:08:47;;;;;;;17.23;9.57;;;4.10;99.90;;;;;;5039362;28;20040;-64
2022/12/08 10:11:20;;;;;;;19.23;10.32;;;4.20;99.90;;;;;;5044561;28;20118;-62
2022/12/08 10:13:54;;;;;;;19.30;10.52;;;4.20;99.90;;;;;;5020418;28;20032;-62
2022/12/08 10:16:29;;;;;;;22.33;10.52;;;4.20;99.90;;;;;;5038139;28;20032;-64
2022/12/08 10:19:11;;;;;;;20.23;10.70;;;4.20;99.90;;;;;;5044878;28;20104;-62
2022/12/08 10:21:39;;;;;;;13.25;8.02;;;4.30;99.90;;;;;;5047136;28;20026;-64
2022/12/08 10:24:12;;;;;;;20.00;8.43;;;4.40;99.90;;;;;;5042185;28;20021;-63
2022/12/08 10:26:38;;;;;;;15.68;9.02;;;4.40;99.90;;;;;;5036239;28;20041;-64
2022/12/08 10:29:05;;;;;;;18.67;8.85;;;4.30;99.90;;;;;;5040353;28;20030;-64
2022/12/08 10:31:31;;;;;;;20.98;12.48;;;4.40;99.90;;;;;;5039653;28;20363;-62
2022/12/08 10:34:00;;;;;;;24.42;12.60;;;4.40;99.90;;;;;;5038351;28;20025;-64
2022/12/08 10:36:46;;;;;;;19.10;9.30;;;4.50;99.90;;;;;;5030205;28;20053;-62
2022/12/08 10:39:36;;;;;;;17.23;7.47;;;4.60;99.90;;;;;;5032958;28;20033;-63
2022/12/08 10:42:06;;;;;;;12.85;6.20;;;4.60;99.90;;;;;;5042475;28;20028;-63
2022/12/08 10:44:31;;;;;;;9.50;5.60;;;4.60;99.90;;;;;;5046630;28;20025;-64
2022/12/08 10:46:57;;;;;;;11.07;4.72;;;4.60;99.90;;;;;;5046599;28;20020;-64
2022/12/08 10:49:31;;;;;;;10.57;5.03;;;4.60;99.90;;;;;;5046547;28;20041;-63
2022/12/08 10:51:57;;;;;;;8.95;4.75;;;4.60;99.90;;;;;;5046500;28;20032;-63
2022/12/08 10:54:34;;;;;;;8.32;4.35;;;4.60;99.90;;;;;;5045341;28;20033;-63
2022/12/08 10:57:00;;;;;;;9.38;4.85;;;4.60;99.90;;;;;;5043714;28;20032;-64
2022/12/08 10:59:25;;;;;;;12.23;6.38;;;4.50;99.90;;;;;;5045375;28;20045;-61
2022/12/08 11:01:54;;;;;;;9.48;4.75;;;4.60;99.90;;;;;;5034017;28;20021;-64
2022/12/08 11:04:35;;;;;;;17.42;5.40;;;4.60;99.90;;;;;;5040102;28;20503;-63
2022/12/08 11:07:03;;;;;;;7.90;4.88;;;4.60;99.90;;;;;;5044395;28;20037;-64
2022/12/08 11:09:47;;;;;;;11.30;4.97;;;4.60;99.90;;;;;;5046520;28;20074;-64
2022/12/08 11:12:18;;;;;;;8.75;4.55;;;4.60;99.90;;;;;;5046730;28;20627;-62
2022/12/08 11:14:44;;;;;;;11.48;5.90;;;4.40;99.90;;;;;;5044185;28;20521;-64
2022/12/08 11:17:23;;;;;;;11.48;5.00;;;4.40;99.90;;;;;;5050343;28;20032;-64
2022/12/08 11:19:58;;;;;;;12.35;6.00;;;4.40;99.90;;;;;;5039806;28;20033;-64
2022/12/08 11:22:25;;;;;;;9.98;5.35;;;4.40;99.90;;;;;;5046602;28;20017;-64
2022/12/08 11:25:06;;;;;;;12.13;5.95;;;4.30;99.90;;;;;;5040247;28;20485;-64
2022/12/08 11:27:35;;;;;;;15.30;6.38;;;4.30;99.90;;;;;;5035287;28;20119;-64
2022/12/08 11:30:01;;;;;;;18.55;7.07;;;4.40;99.90;;;;;;5040258;28;20048;-64
2022/12/08 11:32:27;;;;;;;13.18;7.28;;;4.40;99.90;;;;;;5045576;28;20100;-64
2022/12/08 11:35:03;;;;;;;15.50;5.95;;;4.50;99.90;;;;;;5030045;28;20029;-62
2022/12/08 11:37:38;;;;;;;16.67;7.18;;;4.50;99.90;;;;;;5044860;28;20685;-64
2022/12/08 11:40:13;;;;;;;15.98;7.68;;;4.50;99.90;;;;;;5042554;28;20487;-63
2022/12/08 11:42:55;;;;;;;13.38;6.80;;;4.50;99.90;;;;;;5028203;28;20028;-63
2022/12/08 11:45:26;;;;;;;12.52;6.63;;;4.60;99.90;;;;;;5044759;28;20049;-65
2022/12/08 11:48:25;;;;;;;18.55;8.23;;;4.60;99.90;;;;;;5039556;28;20021;-63
2022/12/08 11:50:58;;;;;;;17.40;8.32;;;4.60;99.90;;;;;;5039020;28;20025;-64
2022/12/08 11:53:42;;;;;;;15.40;7.55;;;4.60;99.90;;;;;;5046486;28;20530;-62
2022/12/08 11:56:26;;;;;;;;;;;4.70;99.90;;;;;;5051428;28;20504;-63
2022/12/08 11:58:56;;;;;;;11.90;5.55;;;4.70;99.90;;;;;;5045692;28;20485;-63
2022/12/08 12:01:25;;;;;;;14.15;5.18;;;4.60;99.90;;;;;;5042984;28;20098;-64
2022/12/08 12:04:16;;;;;;;9.85;4.38;;;4.70;99.90;;;;;;5045724;28;20021;-64
2022/12/08 12:06:59;;;;;;;7.60;3.83;;;4.80;99.90;;;;;;5031127;28;20443;-64
2022/12/08 12:09:58;;;;;;;9.80;3.70;;;4.70;99.90;;;;;;5037746;28;20025;-62
2022/12/08 12:13:01;;;;;;;9.02;4.07;;;4.80;99.90;;;;;;5042565;28;20124;-62
2022/12/08 12:15:44;;;;;;;7.47;3.30;;;4.70;99.90;;;;;;5024327;28;20433;-64
2022/12/08 12:18:30;;;;;;;9.48;3.85;;;4.70;99.90;;;;;;5037789;28;20650;-62
2022/12/08 12:21:03;;;;;;;10.98;4.40;;;4.60;99.90;;;;;;5037040;28;20029;-62
2022/12/08 12:23:47;;;;;;;9.52;3.67;;;4.60;99.90;;;;;;5027307;28;20022;-63
2022/12/08 12:26:25;;;;;;;6.93;2.63;;;4.60;99.90;;;;;;5048557;28;20056;-62
2022/12/08 12:28:56;;;;;;;4.55;2.53;;;4.70;99.90;;;;;;5041288;28;20061;-63
2022/12/08 12:31:26;;;;;;;5.38;2.20;;;4.60;99.90;;;;;;5036311;28;20661;-62
2022/12/08 12:34:03;;;;;;;8.45;2.83;;;4.60;99.90;;;;;;5038291;28;20053;-64
2022/12/08 12:36:31;;;;;;;5.78;2.47;;;4.60;99.90;;;;;;5036815;28;20036;-63
2022/12/08 12:39:00;;;;;;;4.25;2.05;;;4.60;99.90;;;;;;5021214;28;20025;-64
2022/12/08 12:41:35;;;;;;;2.83;1.58;;;4.60;99.90;;;;;;5044758;28;20049;-62
2022/12/08 12:44:12;;;;;;;4.72;1.95;;;4.60;99.90;;;;;;5040554;28;20030;-62
2022/12/08 12:46:54;;;;;;;5.88;2.28;;;4.60;99.90;;;;;;5047140;28;20013;-64
2022/12/08 12:49:38;;;;;;;4.03;2.00;;;4.50;99.90;;;;;;5048572;28;20546;-63
2022/12/08 12:52:16;;;;;;;7.72;2.25;;;4.50;99.90;;;;;;5024877;28;20024;-63
2022/12/08 12:54:49;;;;;;;7.90;2.17;;;4.50;99.90;;;;;;5042322;28;20027;-63
2022/12/08 12:57:35;;;;;;;4.50;2.30;;;4.60;99.90;;;;;;5047028;28;20951;-64